Time;durP1;ratioP1;P1;durP2;ratioP2;P2;SDS_P1;SDS_P2;PMS_P1;PMS_P2;Temp;Humidity;BMP_temperature;BMP_pressure;BME280_temperature;BME280_humidity;BME280_pressure;Samples;Min_cycle;Max_cycle;Signal;HPM_P1;HPM_P2
2021/03/15 00:02:12;;;;;;;2.40;2.20;;;;;;;2.63;71.53;98756.84;4949156;24;20245;-82
2021/03/15 00:05:02;;;;;;;4.40;2.43;;;;;;;2.56;70.94;98748.06;4953026;29;20276;-80
2021/03/15 00:08:09;;;;;;;3.90;2.30;;;;;;;2.73;71.14;98762.63;4967227;23;20237;-81
2021/03/15 00:11:37;;;;;;;2.97;2.13;;;;;;;2.57;70.93;98749.66;4956984;29;20244;-81
2021/03/15 00:14:51;;;;;;;2.80;2.30;;;;;;;2.62;71.08;98753.38;4957471;29;20220;-82
2021/03/15 00:18:32;;;;;;;2.57;2.37;;;;;;;2.84;71.03;98771.91;4924222;29;20224;-81
2021/03/15 00:22:04;;;;;;;3.13;2.37;;;;;;;2.87;71.66;98788.19;4957677;29;20269;-82
2021/03/15 00:25:47;;;;;;;3.00;2.30;;;;;;;2.76;71.51;98787.88;4948154;23;20237;-80
2021/03/15 00:29:34;;;;;;;3.03;2.50;;;;;;;2.71;72.34;98792.94;4972127;23;20269;-81
2021/03/15 00:33:14;;;;;;;3.47;2.47;;;;;;;2.74;72.05;98795.19;4942147;24;20232;-80
2021/03/15 00:36:24;;;;;;;3.20;2.70;;;;;;;2.72;71.96;98789.28;4959937;23;20256;-81
2021/03/15 00:39:35;;;;;;;4.17;2.30;;;;;;;2.35;71.28;98717.13;4963336;23;20189;-81
2021/03/15 00:43:17;;;;;;;2.80;2.37;;;;;;;2.80;71.90;98794.44;4949421;23;20247;-80
2021/03/15 00:47:06;;;;;;;3.47;2.47;;;;;;;2.78;70.91;98767.34;5119011;23;20200;-81
2021/03/15 00:50:40;;;;;;;4.10;2.20;;;;;;;2.85;71.15;98784.91;4985488;23;20213;-81
2021/03/15 00:54:26;;;;;;;4.23;2.30;;;;;;;2.87;71.28;98777.63;4961166;23;20280;-79
2021/03/15 00:58:08;;;;;;;3.30;2.40;;;;;;;2.81;70.73;98774.91;4986617;23;20273;-80
2021/03/15 01:01:28;;;;;;;2.63;2.30;;;;;;;2.60;70.72;98757.25;4967841;23;20281;-80
2021/03/15 01:05:34;;;;;;;4.63;2.30;;;;;;;2.55;70.19;98738.47;4973651;23;20237;-80
2021/03/15 01:13:14;;;;;;;3.67;2.03;;;;;;;2.77;70.92;98769.19;4959133;29;20232;-79
2021/03/15 01:17:05;;;;;;;2.63;2.27;;;;;;;2.64;70.10;98747.91;4953451;23;20225;-80
2021/03/15 01:20:57;;;;;;;3.37;2.10;;;;;;;2.74;70.27;98774.88;4959569;29;20253;-79
2021/03/15 01:24:51;;;;;;;2.80;2.50;;;;;;;2.66;70.32;98773.16;4962935;23;20217;-80
2021/03/15 01:28:26;;;;;;;3.37;2.50;;;;;;;2.55;70.52;98755.16;4982348;23;20273;-81
2021/03/15 01:32:37;;;;;;;3.77;2.73;;;;;;;2.72;70.17;98787.44;4960878;28;20201;-81
2021/03/15 01:35:57;;;;;;;3.50;2.20;;;;;;;2.74;70.20;98782.81;4956690;23;20244;-80
2021/03/15 01:40:01;;;;;;;3.23;2.60;;;;;;;2.50;70.37;98743.50;5048183;23;20228;-80
2021/03/15 01:43:18;;;;;;;3.50;2.50;;;;;;;2.50;70.59;98754.91;4941762;23;20232;-80
2021/03/15 01:46:44;;;;;;;3.90;2.57;;;;;;;2.73;70.56;98772.41;4933878;29;20260;-80
2021/03/15 01:49:44;;;;;;;3.30;2.53;;;;;;;2.75;69.92;98780.97;4887489;29;20225;-80
2021/03/15 01:53:34;;;;;;;4.97;2.70;;;;;;;2.64;71.23;98780.47;4842455;29;20221;-80
2021/03/15 01:57:41;;;;;;;3.37;2.47;;;;;;;2.67;71.00;98787.19;4824558;29;20745;-79
2021/03/15 02:01:07;;;;;;;3.73;2.67;;;;;;;2.17;71.20;98730.78;4908283;23;20264;-80
2021/03/15 02:04:12;;;;;;;3.90;2.90;;;;;;;2.39;70.86;98759.88;4968982;23;20225;-80
2021/03/15 02:07:18;;;;;;;5.07;2.70;;;;;;;2.50;71.64;98762.03;4921804;29;20238;-81
2021/03/15 02:10:49;;;;;;;3.50;2.60;;;;;;;2.42;70.83;98759.50;4946741;23;20213;-81
2021/03/15 02:17:58;;;;;;;4.40;3.20;;;;;;;2.53;72.12;98788.06;4923572;23;20269;-80
2021/03/15 02:21:48;;;;;;;4.33;3.03;;;;;;;2.53;71.71;98794.19;4946931;29;20240;-80
2021/03/15 02:25:48;;;;;;;3.33;2.93;;;;;;;2.39;72.00;98795.06;4893360;23;20219;-80
2021/03/15 02:29:42;;;;;;;4.20;2.77;;;;;;;2.11;72.95;98770.34;4928058;23;20221;-80
2021/03/15 02:33:35;;;;;;;4.07;3.10;;;;;;;2.21;73.24;98795.47;4926882;29;20226;-79
2021/03/15 02:37:14;;;;;;;5.23;3.63;;;;;;;2.25;72.24;98784.53;4959191;29;20201;-80
2021/03/15 02:41:30;;;;;;;4.40;3.00;;;;;;;1.88;72.35;98716.84;4969912;23;20241;-79
2021/03/15 02:45:47;;;;;;;4.47;3.40;;;;;;;2.19;73.58;98783.47;4973517;23;20261;-79
2021/03/15 02:49:32;;;;;;;4.53;3.50;;;;;;;2.09;73.54;98777.66;4918300;29;20215;-81
2021/03/15 02:53:16;;;;;;;4.97;3.70;;;;;;;2.12;73.21;98791.31;4960227;23;20233;-80
2021/03/15 02:57:45;;;;;;;5.37;3.93;;;;;;;2.13;73.08;98781.56;5056996;23;20264;-81
2021/03/15 03:01:33;;;;;;;5.03;3.80;;;;;;;2.13;72.89;98784.22;5072012;23;20263;-80
2021/03/15 03:09:10;;;;;;;4.37;3.93;;;;;;;1.87;73.87;98768.84;4883883;29;20231;-81
2021/03/15 03:12:57;;;;;;;4.40;4.00;;;;;;;2.04;74.17;98788.78;4995355;23;20534;-81
2021/03/15 03:16:48;;;;;;;5.87;4.50;;;;;;;2.11;74.25;98791.50;4966396;23;20242;31
2021/03/15 03:20:17;;;;;;;5.80;4.40;;;;;;;2.15;73.89;98787.47;4936415;23;20237;-80
2021/03/15 03:28:43;;;;;;;5.40;4.10;;;;;;;2.15;73.42;98766.31;4957201;29;20221;-80
2021/03/15 03:32:45;;;;;;;4.73;4.27;;;;;;;2.38;72.99;98782.84;5009923;23;20178;-79
2021/03/15 03:36:25;;;;;;;5.20;4.23;;;;;;;2.44;72.87;98781.28;4975215;23;20276;-81
2021/03/15 03:40:36;;;;;;;5.27;4.03;;;;;;;2.35;72.54;98763.91;4926860;23;20293;-82
2021/03/15 03:48:36;;;;;;;4.47;3.97;;;;;;;2.45;71.98;98727.41;4930388;23;20232;-82
2021/03/15 03:55:51;;;;;;;4.53;3.80;;;;;;;2.86;71.13;98765.38;4960301;23;20229;-81
2021/03/15 03:59:32;;;;;;;4.03;3.53;;;;;;;2.96;71.03;98773.81;4956677;29;20257;-82
2021/03/15 04:02:58;;;;;;;3.80;3.40;;;;;;;3.05;70.45;98761.25;4930943;29;20209;-81
2021/03/15 04:06:29;;;;;;;3.77;3.47;;;;;;;2.94;70.09;98733.50;5042738;23;20229;-81
2021/03/15 04:10:26;;;;;;;3.70;3.30;;;;;;;3.22;70.11;98769.75;4929925;23;20237;-82
2021/03/15 04:14:03;;;;;;;3.60;3.30;;;;;;;3.26;69.55;98763.88;4977417;23;20240;-80
2021/03/15 04:17:56;;;;;;;3.43;3.13;;;;;;;3.28;69.00;98753.06;4963603;23;20232;-81
2021/03/15 04:21:42;;;;;;;5.33;3.57;;;;;;;3.29;69.46;98760.81;4926866;29;20180;-81
2021/03/15 04:26:14;;;;;;;3.87;3.47;;;;;;;3.29;69.70;98763.47;4951588;29;20201;-81
2021/03/15 04:30:23;;;;;;;3.90;3.60;;;;;;;3.28;69.54;98748.59;4953762;23;20252;-82
2021/03/15 04:33:38;;;;;;;3.60;3.30;;;;;;;3.10;69.32;98750.91;5364073;23;20220;-81
2021/03/15 04:37:47;;;;;;;5.10;3.70;;;;;;;3.29;68.96;98758.19;5051588;23;20213;-80
2021/03/15 04:41:49;;;;;;;4.40;3.80;;;;;;;3.36;69.12;98774.91;4968372;23;20209;-81
2021/03/15 04:49:16;;;;;;;4.27;3.87;;;;;;;3.37;68.93;98767.78;4989420;23;20229;-80
2021/03/15 04:53:06;;;;;;;4.33;3.93;;;;;;;3.37;68.48;98773.91;5041633;23;20241;-80
2021/03/15 04:57:06;;;;;;;4.30;3.90;;;;;;;3.37;68.76;98773.91;4968812;23;20232;-81
2021/03/15 05:05:15;;;;;;;5.33;3.90;;;;;;;3.40;68.76;98781.47;5044899;23;20214;-80
2021/03/15 05:14:11;;;;;;;4.20;3.80;;;;;;;3.29;68.34;98783.84;4997355;23;20233;-80
2021/03/15 05:17:44;;;;;;;4.03;3.70;;;;;;;3.30;67.98;98790.78;4942366;29;20682;-82
2021/03/15 05:21:14;;;;;;;4.20;3.70;;;;;;;3.15;68.96;98788.22;4914166;29;20198;-82
2021/03/15 05:25:38;;;;;;;4.07;3.67;;;;;;;3.13;69.04;98792.88;4920646;29;20291;-81
2021/03/15 05:29:13;;;;;;;4.80;3.77;;;;;;;3.07;68.94;98788.38;5039064;23;20245;-80
2021/03/15 05:37:26;;;;;;;5.10;4.43;;;;;;;3.18;68.98;98794.94;5016307;23;20243;-81
2021/03/15 05:41:06;;;;;;;5.63;5.13;;;;;;;2.91;69.81;98754.22;4961652;23;20305;-81
2021/03/15 05:44:55;;;;;;;5.30;4.77;;;;;;;3.11;69.38;98786.97;5044276;23;20245;-82
2021/03/15 05:48:49;;;;;;;4.90;4.50;;;;;;;3.13;68.89;98779.63;4968249;23;21175;-82
2021/03/15 05:52:55;;;;;;;5.10;4.60;;;;;;;3.09;69.04;98789.78;4962185;29;20193;-81
2021/03/15 06:01:53;;;;;;;4.40;4.00;;;;;;;3.24;67.64;98783.59;5074009;28;20559;-80
2021/03/15 06:17:55;;;;;;;4.60;4.20;;;;;;;3.20;67.23;98782.34;5049193;22;20235;-80
2021/03/15 06:25:42;;;;;;;6.60;4.80;;;;;;;3.62;66.50;98784.03;5107948;22;20239;-81
2021/03/15 06:30:00;;;;;;;4.83;4.33;;;;;;;4.05;65.69;98789.94;5209441;22;20219;-79
2021/03/15 06:41:44;;;;;;;5.20;4.40;;;;;;;5.67;60.04;98781.47;5130540;22;20347;-77
2021/03/15 06:46:22;;;;;;;4.20;3.80;;;;;;;6.09;57.72;98780.13;5252451;22;20219;-80
2021/03/15 06:53:25;;;;;;;4.00;3.70;;;;;;;6.56;55.77;98776.19;5030436;28;20226;-81
2021/03/15 07:06:20;;;;;;;3.93;3.63;;;;;;;6.82;55.32;98786.66;5145062;22;20231;-78
2021/03/15 07:09:54;;;;;;;4.53;4.13;;;;;;;6.90;54.46;98789.09;5175772;22;20210;-78
2021/03/15 07:13:12;;;;;;;4.30;3.90;;;;;;;7.04;54.63;98797.78;5082762;28;20228;-81
2021/03/15 07:15:47;;;;;;;4.73;4.20;;;;;;;6.64;54.90;98776.75;5080589;28;20296;-80
2021/03/15 07:18:31;;;;;;;4.60;4.20;;;;;;;6.69;55.29;98770.78;5088926;28;20223;-83
2021/03/15 07:21:34;;;;;;;4.80;4.40;;;;;;;6.55;55.07;98742.63;5101948;28;20669;-82
2021/03/15 07:29:09;;;;;;;4.30;3.90;;;;;;;6.60;54.41;98758.78;5285577;22;20243;-80
2021/03/15 07:36:29;;;;;;;4.57;4.10;;;;;;;6.99;53.99;98792.28;5093603;22;20231;-80
2021/03/15 07:39:56;;;;;;;4.70;4.30;;;;;;;7.22;53.12;98778.38;5026046;28;20226;-80
2021/03/15 07:43:51;;;;;;;4.30;3.80;;;;;;;7.25;53.50;98789.41;5102190;23;20621;-80
2021/03/15 07:48:08;;;;;;;5.13;4.30;;;;;;;7.19;52.69;98730.84;5017906;22;20285;-81
2021/03/15 07:51:44;;;;;;;4.33;3.93;;;;;;;7.71;52.15;98780.94;5300078;22;20228;-78
2021/03/15 07:55:46;;;;;;;4.47;3.93;;;;;;;7.89;51.52;98783.63;5057825;28;20241;-80
2021/03/15 07:59:32;;;;;;;4.03;3.63;;;;;;;7.89;50.34;98764.94;5087429;22;20219;-80
2021/03/15 08:03:09;;;;;;;4.03;3.63;;;;;;;8.16;50.29;98783.31;5178831;22;20215;-81
2021/03/15 08:06:57;;;;;;;3.73;3.43;;;;;;;8.31;50.07;98787.25;5077728;28;20231;-80
2021/03/15 08:11:11;;;;;;;4.13;3.77;;;;;;;8.13;50.47;98781.91;5160836;22;20232;-80
2021/03/15 08:15:02;;;;;;;5.07;3.67;;;;;;;8.09;50.42;98780.72;5095022;28;20235;-79
2021/03/15 08:17:56;;;;;;;3.70;3.40;;;;;;;8.20;50.25;98779.97;5166561;22;20232;-80
2021/03/15 08:21:53;;;;;;;3.63;3.33;;;;;;;8.15;50.13;98787.84;5086547;22;20220;-78
2021/03/15 08:25:47;;;;;;;4.20;3.80;;;;;;;7.64;51.43;98760.75;5053747;28;20194;-80
2021/03/15 08:29:18;;;;;;;4.33;3.93;;;;;;;7.81;51.88;98756.44;5185023;22;20215;-79
2021/03/15 08:36:28;;;;;;;3.50;3.20;;;;;;;7.42;50.87;98729.16;5054038;28;20194;-79
2021/03/15 08:39:40;;;;;;;3.80;3.50;;;;;;;7.66;52.15;98747.97;5065419;28;20320;-79
2021/03/15 08:43:48;;;;;;;3.37;3.07;;;;;;;7.48;51.48;98746.94;5096368;22;20239;-80
2021/03/15 08:47:17;;;;;;;3.80;3.50;;;;;;;7.59;52.09;98745.41;5086649;22;20263;-80
2021/03/15 08:50:45;;;;;;;3.40;3.07;;;;;;;7.50;51.45;98738.75;5089998;28;20229;-80
2021/03/15 08:54:12;;;;;;;3.60;3.30;;;;;;;7.69;50.01;98726.22;5096893;22;20224;-79
2021/03/15 08:58:29;;;;;;;5.53;3.03;;;;;;;7.79;49.09;98719.31;5093072;28;20239;-79
2021/03/15 09:02:03;;;;;;;3.67;3.33;;;;;;;7.64;49.94;98728.75;4472555;27;19019867;-79
2021/03/15 09:05:29;;;;;;;3.90;3.50;;;;;;;7.84;49.64;98723.97;5103726;28;20219;-79
2021/03/15 09:09:15;;;;;;;3.73;3.30;;;;;;;7.66;49.42;98714.16;5131228;28;20192;-79
2021/03/15 09:12:23;;;;;;;4.40;4.00;;;;;;;7.92;51.27;98718.38;5132117;28;20156;-79
2021/03/15 09:15:54;;;;;;;4.20;3.80;;;;;;;8.00;49.73;98723.38;5134217;22;20221;-79
2021/03/15 09:19:43;;;;;;;4.63;3.80;;;;;;;8.03;49.27;98724.78;5075454;22;20174;-79
2021/03/15 09:22:47;;;;;;;4.83;3.80;;;;;;;8.03;50.18;98711.44;5074389;22;21209;-79
2021/03/15 09:26:39;;;;;;;4.40;4.00;;;;;;;8.31;48.62;98690.34;5065697;28;20301;-79
2021/03/15 09:30:21;;;;;;;4.27;3.87;;;;;;;8.52;47.84;98700.50;5096057;28;20216;-78
2021/03/15 09:33:37;;;;;;;4.40;4.00;;;;;;;8.56;48.70;98693.66;5086191;22;20224;-79
2021/03/15 09:37:32;;;;;;;4.17;3.77;;;;;;;9.16;46.99;98693.50;5188146;22;20240;-79
2021/03/15 09:41:22;;;;;;;4.50;4.10;;;;;;;9.32;46.89;98687.44;5061777;22;20254;-79
2021/03/15 09:44:50;;;;;;;4.80;3.87;;;;;;;8.88;47.17;98680.81;5109388;23;20228;-79
2021/03/15 09:48:01;;;;;;;4.37;3.97;;;;;;;8.93;48.48;98686.28;5087632;28;20239;-79
2021/03/15 09:51:38;;;;;;;5.00;4.23;;;;;;;9.32;47.36;98683.97;5101147;28;20208;-79
2021/03/15 09:55:35;;;;;;;4.70;4.30;;;;;;;9.03;46.95;98681.19;5081671;23;20299;-79
2021/03/15 09:59:16;;;;;;;4.47;4.03;;;;;;;8.71;47.51;98682.56;5100100;22;20225;-79
2021/03/15 10:02:36;;;;;;;4.00;3.60;;;;;;;8.72;47.22;98684.19;5060671;28;20181;-78
2021/03/15 10:06:41;;;;;;;5.30;4.30;;;;;;;8.66;47.50;98669.06;5052865;22;20228;-78
2021/03/15 10:10:51;;;;;;;4.40;4.00;;;;;;;8.36;47.00;98675.28;5060522;28;20248;-78
2021/03/15 10:14:13;;;;;;;4.37;3.97;;;;;;;8.39;48.08;98648.16;5136000;23;20663;31
2021/03/15 10:17:54;;;;;;;5.90;3.93;;;;;;;8.58;47.94;98661.41;5117456;23;20221;-78
2021/03/15 10:21:31;;;;;;;5.33;4.27;;;;;;;9.27;47.02;98655.25;5074300;23;20276;-79
2021/03/15 10:24:11;;;;;;;4.83;3.97;;;;;;;9.76;45.79;98648.50;5075980;28;20224;-79
2021/03/15 10:27:30;;;;;;;4.17;3.70;;;;;;;9.52;44.00;98647.75;5091682;23;20344;-80
2021/03/15 10:31:28;;;;;;;3.93;3.53;;;;;;;9.33;43.94;98629.47;5093275;23;20240;-78
2021/03/15 10:34:45;;;;;;;3.70;3.40;;;;;;;9.56;44.17;98595.44;5079667;23;20297;-78
2021/03/15 10:38:48;;;;;;;4.07;3.67;;;;;;;10.30;43.72;98636.44;4991194;23;20207;-78
2021/03/15 10:42:37;;;;;;;4.87;3.33;;;;;;;10.72;41.99;98634.19;5293575;23;20236;-78
2021/03/15 10:47:26;;;;;;;3.80;3.50;;;;;;;11.18;40.67;98618.75;5185390;23;20248;-77
2021/03/15 10:54:47;;;;;;;4.10;3.67;;;;;;;11.06;41.54;98624.22;5082162;22;20236;-78
2021/03/15 10:59:00;;;;;;;3.50;3.00;;;;;;;11.68;39.79;98613.22;5038691;23;20199;-79
2021/03/15 11:02:55;;;;;;;6.60;3.80;;;;;;;11.74;38.87;98578.19;5079193;23;20208;-79
2021/03/15 11:06:57;;;;;;;3.90;3.37;;;;;;;12.07;38.70;98609.38;5173109;23;20201;-79
2021/03/15 11:10:21;;;;;;;3.20;2.93;;;;;;;11.89;38.46;98610.53;5063080;23;20210;-79
2021/03/15 11:14:26;;;;;;;3.10;2.90;;;;;;;11.60;38.79;98601.06;5066766;23;20208;-79
2021/03/15 11:18:22;;;;;;;3.20;2.90;;;;;;;11.69;39.71;98610.28;5057809;28;20174;-82
2021/03/15 11:22:08;;;;;;;3.50;3.20;;;;;;;11.86;38.38;98620.94;5048059;23;20211;-80
2021/03/15 11:25:48;;;;;;;3.63;3.10;;;;;;;12.01;37.60;98620.31;5120379;23;20187;-81
2021/03/15 11:34:24;;;;;;;4.50;3.00;;;;;;;11.03;39.41;98569.25;4998991;23;20291;-79
2021/03/15 11:38:06;;;;;;;3.40;2.90;;;;;;;10.53;40.81;98581.91;5079593;23;20225;-80
2021/03/15 11:48:56;;;;;;;3.00;2.67;;;;;;;10.22;41.73;98572.56;5066550;23;20232;-83
2021/03/15 11:52:29;;;;;;;3.30;3.00;;;;;;;10.72;40.83;98577.94;5032882;28;20274;-84
2021/03/15 11:55:48;;;;;;;3.70;2.90;;;;;;;11.26;39.71;98570.88;4987163;28;20219;-83
2021/03/15 11:59:23;;;;;;;4.27;2.73;;;;;;;10.99;37.65;98564.63;5033990;28;20211;-82
2021/03/15 12:03:05;;;;;;;3.13;2.77;;;;;;;11.01;39.33;98557.94;5065425;23;20229;-81
2021/03/15 12:06:23;;;;;;;3.97;2.40;;;;;;;11.91;37.39;98557.41;5033729;28;20224;-81
2021/03/15 12:09:35;;;;;;;2.40;2.20;;;;;;;11.91;36.62;98565.47;5041285;28;20214;-81
2021/03/15 12:13:31;;;;;;;4.33;2.57;;;;;;;11.22;38.63;98564.38;5082586;23;20220;-81
2021/03/15 12:20:40;;;;;;;3.53;2.17;;;;;;;10.75;40.09;98553.31;4975871;23;20418;-80
2021/03/15 12:23:52;;;;;;;3.73;2.47;;;;;;;11.04;39.23;98522.63;5008077;23;20226;-80
2021/03/15 12:26:45;;;;;;;3.17;2.40;;;;;;;12.06;36.67;98537.94;5041834;23;20219;-80
2021/03/15 12:38:10;;;;;;;3.83;2.23;;;;;;;11.15;38.10;98536.16;5186334;22;20298;-80
2021/03/15 12:41:33;;;;;;;2.43;1.93;;;;;;;10.48;37.38;98509.53;5021860;23;20215;-79
2021/03/15 12:45:11;;;;;;;4.23;2.50;;;;;;;10.09;38.76;98525.50;5003109;23;20207;-78
2021/03/15 12:49:28;;;;;;;2.47;1.90;;;;;;;10.84;38.79;98519.69;5013981;23;20222;-81
2021/03/15 12:53:11;;;;;;;2.27;2.07;;;;;;;11.56;36.95;98513.28;5028611;28;20211;-78
2021/03/15 12:57:46;;;;;;;2.47;1.80;;;;;;;10.79;36.21;98508.88;5174490;23;20243;-79
2021/03/15 13:01:41;;;;;;;2.70;1.80;;;;;;;10.59;37.31;98506.72;4976823;23;20255;-78
2021/03/15 13:10:23;;;;;;;2.03;1.70;;;;;;;10.80;37.82;98523.09;5017850;23;20238;-81
2021/03/15 13:17:51;;;;;;;3.00;2.20;;;;;;;10.86;38.01;98503.34;5108135;23;20220;-79
2021/03/15 13:21:33;;;;;;;2.10;1.90;;;;;;;10.78;38.93;98503.81;4973775;23;20212;-79
2021/03/15 13:25:25;;;;;;;2.50;2.30;;;;;;;10.71;39.69;98522.72;5015207;23;20290;-79
2021/03/15 13:29:09;;;;;;;2.60;2.20;;;;;;;10.60;39.87;98518.25;5010239;23;20230;-79
2021/03/15 13:32:55;;;;;;;2.53;2.07;;;;;;;10.40;39.89;98510.78;5011383;23;20229;-79
2021/03/15 13:36:57;;;;;;;3.30;2.10;;;;;;;10.12;40.14;98516.97;5102349;23;20244;-79
2021/03/15 13:40:35;;;;;;;3.20;2.03;;;;;;;9.89;41.01;98487.69;5014215;23;20214;-78
2021/03/15 13:44:32;;;;;;;2.87;2.00;;;;;;;9.85;41.47;98507.16;5032714;23;20212;-78
2021/03/15 13:48:14;;;;;;;2.80;1.87;;;;;;;9.71;42.34;98487.94;5102256;23;20195;-80
2021/03/15 13:51:26;;;;;;;3.47;2.13;;;;;;;9.46;42.88;98507.03;5096484;23;20246;-79
2021/03/15 13:55:38;;;;;;;2.37;2.00;;;;;;;9.39;43.31;98500.19;5027849;23;20258;-78
2021/03/15 13:59:51;;;;;;;3.27;2.10;;;;;;;9.19;44.00;98503.31;5214759;23;20219;-78
2021/03/15 14:03:51;;;;;;;2.67;1.97;;;;;;;9.22;44.34;98508.16;5058197;23;20235;-78
2021/03/15 14:15:23;;;;;;;1.67;1.50;;;;;;;9.37;41.79;98497.75;4987446;23;20235;-80
2021/03/15 14:19:07;;;;;;;1.70;1.40;;;;;;;9.54;41.82;98506.63;5255953;23;20201;-77
2021/03/15 14:27:14;;;;;;;1.60;1.40;;;;;;;10.17;40.21;98497.56;5159682;23;20231;-79
2021/03/15 14:31:37;;;;;;;3.53;1.90;;;;;;;10.06;40.70;98480.50;4988126;23;20223;-80
2021/03/15 14:35:06;;;;;;;2.63;1.60;;;;;;;9.85;41.11;98437.59;5010837;23;20290;-79
2021/03/15 14:44:03;;;;;;;2.70;1.90;;;;;;;10.26;41.11;98485.38;5056999;23;20277;-79
2021/03/15 14:48:08;;;;;;;2.60;1.73;;;;;;;10.52;41.27;98475.84;5041029;28;20200;-79
2021/03/15 14:52:27;;;;;;;1.97;1.63;;;;;;;10.19;40.86;98444.59;5037881;23;20308;-80
2021/03/15 14:56:21;;;;;;;3.47;1.73;;;;;;;10.22;41.85;98486.13;5055298;28;20593;-80
2021/03/15 15:00:40;;;;;;;3.40;2.00;;;;;;;9.69;42.46;98441.91;5042934;23;20238;-79
2021/03/15 15:04:30;;;;;;;3.03;1.70;;;;;;;10.21;42.80;98497.88;5064477;23;20244;-81
2021/03/15 15:08:35;;;;;;;2.50;1.80;;;;;;;9.84;42.74;98484.97;5137585;23;20290;-81
2021/03/15 15:16:20;;;;;;;2.43;1.70;;;;;;;9.81;42.61;98484.59;5061329;23;20231;-79
2021/03/15 15:19:45;;;;;;;2.50;1.50;;;;;;;9.77;42.06;98486.97;4957133;29;20285;-79
2021/03/15 15:30:58;;;;;;;2.90;1.50;;;;;;;9.59;42.89;98447.06;5185276;23;20242;-80
2021/03/15 15:46:05;;;;;;;2.33;1.63;;;;;;;9.26;43.04;98455.84;5031012;23;20240;-79
2021/03/15 15:54:33;;;;;;;2.40;1.30;;;;;;;9.48;43.06;98477.34;5021064;23;20215;-77
2021/03/15 15:58:40;;;;;;;2.47;1.13;;;;;;;9.34;43.07;98471.50;4969251;29;20326;-79
2021/03/15 16:02:24;;;;;;;1.13;1.00;;;;;;;9.27;43.52;98484.19;4987574;23;20264;-80
2021/03/15 16:06:35;;;;;;;2.13;1.50;;;;;;;9.01;44.02;98490.09;5036105;23;20231;-79
2021/03/15 16:10:06;;;;;;;4.33;1.57;;;;;;;8.42;45.03;98427.19;4996197;23;20257;-80
2021/03/15 16:13:43;;;;;;;2.00;1.20;;;;;;;8.60;45.14;98483.91;5060088;23;20245;-79
2021/03/15 16:17:28;;;;;;;1.63;1.20;;;;;;;8.35;45.43;98489.50;5127141;23;20226;-79
2021/03/15 16:21:04;;;;;;;2.70;1.17;;;;;;;8.20;46.46;98491.81;5037566;28;20198;-80
2021/03/15 16:24:39;;;;;;;2.03;1.30;;;;;;;7.55;47.33;98423.56;5253809;22;20233;-80
2021/03/15 16:28:37;;;;;;;1.97;1.00;;;;;;;7.59;48.21;98470.03;5012818;28;20705;-80
2021/03/15 16:32:09;;;;;;;1.57;1.30;;;;;;;7.59;48.61;98513.50;5060511;23;20183;-76
2021/03/15 16:36:34;;;;;;;12.10;7.03;;;;;;;7.40;50.04;98504.75;5054393;23;20230;-79
2021/03/15 16:41:01;;;;;;;4.20;3.50;;;;;;;7.22;50.52;98510.13;4995516;28;20224;-79
2021/03/15 16:44:34;;;;;;;4.27;1.70;;;;;;;6.63;51.79;98454.91;5076407;23;21003;-79
2021/03/15 16:48:10;;;;;;;2.43;1.80;;;;;;;6.87;52.75;98509.09;5055045;28;20201;-78
2021/03/15 16:51:44;;;;;;;2.93;1.83;;;;;;;6.63;54.44;98505.47;5054088;23;20219;-79
2021/03/15 16:55:14;;;;;;;2.87;1.77;;;;;;;6.49;54.88;98504.81;5030615;23;20231;-80
2021/03/15 16:58:26;;;;;;;3.20;2.30;;;;;;;6.40;55.26;98502.66;5011845;23;20239;31
2021/03/15 17:01:18;;;;;;;3.07;2.10;;;;;;;6.33;55.86;98515.22;5026755;23;20226;-79
2021/03/15 17:08:26;;;;;;;4.17;2.10;;;;;;;5.96;57.12;98506.34;5039011;23;20225;-79
2021/03/15 17:12:15;;;;;;;3.77;2.10;;;;;;;5.82;58.55;98523.41;4985747;28;20234;-80
2021/03/15 17:16:07;;;;;;;2.07;1.87;;;;;;;5.66;59.49;98533.50;5011472;23;20248;-80
2021/03/15 17:20:19;;;;;;;2.40;1.93;;;;;;;5.32;60.28;98507.34;4936404;29;20217;-79
2021/03/15 17:35:11;;;;;;;5.40;4.60;;;;;;;4.99;62.20;98531.44;5048900;23;20292;-78
2021/03/15 17:39:01;;;;;;;5.90;3.43;;;;;;;4.95;63.08;98551.44;5055039;23;20240;-77
2021/03/15 17:47:12;;;;;;;5.37;3.20;;;;;;;4.24;65.03;98500.19;5014275;23;20248;-78
2021/03/15 17:54:59;;;;;;;4.63;3.33;;;;;;;3.84;66.03;98488.81;5160593;23;20213;-79
2021/03/15 17:58:40;;;;;;;5.20;3.50;;;;;;;4.26;66.29;98572.38;5082300;23;20215;-78
2021/03/15 18:02:53;;;;;;;5.80;3.17;;;;;;;4.06;67.86;98574.25;5102193;23;20214;-80
2021/03/15 18:07:09;;;;;;;4.90;3.37;;;;;;;3.94;68.67;98581.97;5127756;23;20221;-80
2021/03/15 18:11:19;;;;;;;3.67;2.70;;;;;;;3.83;68.81;98582.56;4982996;28;20268;-79
2021/03/15 18:19:14;;;;;;;3.90;3.50;;;;;;;3.58;69.67;98578.84;5031363;23;20210;-81
2021/03/15 18:23:24;;;;;;;8.57;5.10;;;;;;;3.53;69.55;98582.91;5205528;23;20213;-80
2021/03/15 18:31:27;;;;;;;18.73;12.43;;;;;;;2.92;70.38;98521.22;5014042;23;20238;-81
2021/03/15 18:39:02;;;;;;;6.83;5.53;;;;;;;3.39;72.19;98593.66;5054904;28;20265;-79
2021/03/15 18:42:59;;;;;;;11.10;8.50;;;;;;;3.45;71.90;98598.19;4983869;22;20243;-80
2021/03/15 18:46:33;;;;;;;8.23;6.07;;;;;;;3.42;71.15;98596.72;5063555;23;20301;-79
2021/03/15 18:53:21;;;;;;;9.10;6.90;;;;;;;3.27;71.63;98598.69;5039716;23;20262;-78
2021/03/15 19:04:23;;;;;;;6.30;4.53;;;;;;;2.73;73.27;98537.00;4995520;23;20237;-81
2021/03/15 19:08:43;;;;;;;5.20;3.83;;;;;;;2.63;73.33;98534.72;5037706;28;20234;-80
2021/03/15 19:13:18;;;;;;;5.70;4.40;;;;;;;3.11;73.99;98612.28;4957859;29;20288;-80
2021/03/15 19:16:55;;;;;;;6.17;4.23;;;;;;;2.89;73.96;98581.66;5044570;23;20219;-81
2021/03/15 19:28:18;;;;;;;5.40;3.97;;;;;;;2.91;73.95;98620.13;5016494;23;20223;-80
2021/03/15 19:36:46;;;;;;;6.03;4.30;;;;;;;2.70;74.91;98609.63;5040732;23;20227;-80
2021/03/15 19:40:32;;;;;;;7.37;5.30;;;;;;;2.62;75.07;98602.66;5016750;23;20210;-79
2021/03/15 19:51:40;;;;;;;2.23;1.80;;;;;;;2.80;77.46;98583.63;4996795;23;20235;-79
2021/03/15 20:02:35;;;;;;;2.30;1.50;;;;;;;3.24;77.19;98640.63;4998003;23;20238;-79
2021/03/15 20:06:50;;;;;;;1.50;1.40;;;;;;;3.16;77.74;98641.63;5007451;23;20225;-80
2021/03/15 20:10:30;;;;;;;1.30;1.20;;;;;;;3.16;78.34;98643.47;5006561;23;20239;-79
2021/03/15 20:18:35;;;;;;;1.70;1.60;;;;;;;2.90;78.48;98660.81;5025569;23;20288;-80
2021/03/15 20:21:37;;;;;;;1.90;1.50;;;;;;;2.73;78.54;98640.97;5046345;23;20271;-81
2021/03/15 20:25:45;;;;;;;1.53;1.30;;;;;;;2.75;79.29;98676.00;5000343;23;20227;-80
2021/03/15 20:29:49;;;;;;;1.37;1.27;;;;;;;2.65;79.62;98676.31;5123102;23;20241;-78
2021/03/15 20:34:08;;;;;;;1.43;1.33;;;;;;;2.69;80.04;98674.09;5041833;23;20245;-79
2021/03/15 20:37:42;;;;;;;1.17;1.07;;;;;;;3.00;78.32;98682.44;5144528;23;20205;31
2021/03/15 20:40:48;;;;;;;0.90;0.90;;;;;;;2.83;78.53;98641.44;4959176;29;20243;-79
2021/03/15 20:44:16;;;;;;;0.73;0.73;;;;;;;3.11;78.61;98657.28;5018134;23;20209;-79
2021/03/15 20:47:33;;;;;;;1.43;0.70;;;;;;;3.22;77.97;98661.22;5005472;23;20386;-79
2021/03/15 20:54:40;;;;;;;0.77;0.77;;;;;;;3.76;77.18;98698.31;5065652;23;20239;-79
2021/03/15 20:57:56;;;;;;;1.33;0.90;;;;;;;3.92;76.59;98709.34;5059359;23;20222;-79
2021/03/15 21:01:54;;;;;;;1.00;1.00;;;;;;;3.92;77.10;98708.53;5062548;23;20232;-78
2021/03/15 21:05:48;;;;;;;1.03;1.03;;;;;;;3.96;76.81;98715.91;5046345;23;20226;-80
2021/03/15 21:09:55;;;;;;;1.23;1.13;;;;;;;4.02;77.17;98710.81;5126700;23;20225;-79
2021/03/15 21:13:36;;;;;;;1.20;1.10;;;;;;;3.97;77.25;98696.31;5035962;23;20222;-79
2021/03/15 21:17:11;;;;;;;1.00;1.00;;;;;;;3.85;77.17;98682.03;5028849;23;20246;-79
2021/03/15 21:21:01;;;;;;;2.23;1.17;;;;;;;4.10;77.02;98706.16;5009219;28;20265;-79
2021/03/15 21:24:30;;;;;;;1.43;1.30;;;;;;;3.99;76.95;98696.13;4982522;28;20191;-79
2021/03/15 21:28:14;;;;;;;1.97;1.87;;;;;;;4.00;77.31;98708.38;5087434;23;20210;-78
2021/03/15 21:32:06;;;;;;;2.10;2.00;;;;;;;3.73;77.65;98688.94;5104089;23;20242;-80
2021/03/15 21:44:57;;;;;;;3.10;2.90;;;;;;;3.81;78.02;98715.25;4991404;23;20225;-78
2021/03/15 21:54:00;;;;;;;3.77;3.47;;;;;;;3.73;78.24;98709.31;5043936;28;20267;-78
2021/03/15 22:02:11;;;;;;;3.83;3.53;;;;;;;3.75;77.51;98708.09;5041714;23;20235;-80
2021/03/15 22:06:15;;;;;;;3.70;3.40;;;;;;;3.89;77.75;98723.03;5135494;23;20212;-80
2021/03/15 22:10:27;;;;;;;4.23;3.93;;;;;;;3.42;77.54;98643.56;5055341;23;20229;-80
2021/03/15 22:22:45;;;;;;;4.70;4.30;;;;;;;3.82;78.17;98730.13;5019163;23;20214;-80
2021/03/15 22:29:51;;;;;;;4.70;4.30;;;;;;;3.82;77.45;98724.03;5041850;23;20178;-79
2021/03/15 22:33:34;;;;;;;4.30;4.00;;;;;;;3.84;77.01;98719.31;5043280;23;20230;-79